Time;durP1;ratioP1;P1;durP2;ratioP2;P2;SDS_P1;SDS_P2;PMS_P1;PMS_P2;Temp;Humidity;BMP_temperature;BMP_pressure;BME280_temperature;BME280_humidity;BME280_pressure;Samples;Min_cycle;Max_cycle;Signal;HPM_P1;HPM_P2
2021/10/26 00:01:47;;;;;;;20.17;17.70;;;12.60;99.90;;;;;;5103649;27;20127;-80
2021/10/26 00:04:14;;;;;;;18.10;14.18;;;12.60;99.90;;;;;;5085702;27;21704;-80
2021/10/26 00:06:41;;;;;;;21.75;14.88;;;12.60;99.90;;;;;;5081546;27;20394;-80
2021/10/26 00:09:07;;;;;;;19.23;15.20;;;12.60;99.90;;;;;;5115883;27;20047;-80
2021/10/26 00:11:34;;;;;;;23.30;15.40;;;12.60;99.90;;;;;;5085088;27;20035;-80
2021/10/26 00:14:00;;;;;;;20.73;15.73;;;12.60;99.90;;;;;;5127188;27;20038;-80
2021/10/26 00:16:27;;;;;;;24.65;16.75;;;12.60;99.90;;;;;;5098021;27;20031;-80
2021/10/26 00:18:53;;;;;;;19.00;15.73;;;12.60;99.90;;;;;;5082506;27;20789;-80
2021/10/26 00:21:20;;;;;;;20.15;15.18;;;12.60;99.90;;;;;;5100150;27;20024;-79
2021/10/26 00:23:47;;;;;;;15.95;12.73;;;12.60;99.90;;;;;;5084079;27;20046;-80
2021/10/26 00:26:15;;;;;;;21.88;16.23;;;12.60;99.90;;;;;;5083376;27;20507;-79
2021/10/26 00:28:42;;;;;;;25.15;18.38;;;12.60;99.90;;;;;;5081539;27;20039;-83
2021/10/26 00:31:08;;;;;;;25.83;19.02;;;12.60;99.90;;;;;;5098210;27;20039;-83
2021/10/26 00:33:35;;;;;;;27.20;17.17;;;12.60;99.90;;;;;;5114065;27;20398;-83
2021/10/26 00:36:03;;;;;;;21.83;17.75;;;12.60;99.90;;;;;;5096916;27;20027;-83
2021/10/26 00:38:30;;;;;;;24.65;16.10;;;12.60;99.90;;;;;;5084082;27;20027;-83
2021/10/26 00:40:57;;;;;;;21.65;16.17;;;12.60;99.90;;;;;;5079753;27;20365;-84
2021/10/26 00:43:24;;;;;;;21.65;15.93;;;12.60;99.90;;;;;;5115243;27;20101;-83
2021/10/26 00:45:52;;;;;;;19.88;15.80;;;12.60;99.90;;;;;;5116792;27;20034;-83
2021/10/26 00:48:18;;;;;;;17.58;12.73;;;12.70;99.90;;;;;;5094644;27;20620;-83
2021/10/26 00:50:46;;;;;;;21.50;16.23;;;12.60;99.90;;;;;;5070054;27;20029;-83
2021/10/26 00:53:18;;;;;;;24.45;16.80;;;12.60;99.90;;;;;;5080770;27;20062;-83
2021/10/26 00:55:48;;;;;;;19.88;16.20;;;12.70;99.90;;;;;;5115287;27;20473;-83
2021/10/26 00:58:16;;;;;;;18.75;14.85;;;12.70;99.90;;;;;;5080074;27;20039;-84
2021/10/26 01:00:44;;;;;;;18.48;15.27;;;12.60;99.90;;;;;;5094799;27;20039;-84
2021/10/26 01:03:11;;;;;;;21.05;15.52;;;12.70;99.90;;;;;;5098237;27;20531;-84
2021/10/26 01:05:42;;;;;;;20.40;15.95;;;12.70;99.90;;;;;;5084846;27;20476;-80
2021/10/26 01:08:10;;;;;;;17.92;15.55;;;12.70;99.90;;;;;;5082654;27;20039;-82
2021/10/26 01:10:37;;;;;;;20.77;15.35;;;12.70;99.90;;;;;;5083869;27;20053;-81
2021/10/26 01:13:05;;;;;;;22.52;16.85;;;12.70;99.90;;;;;;5080113;27;20032;-82
2021/10/26 01:15:33;;;;;;;25.48;19.10;;;12.70;99.90;;;;;;5082082;27;20036;-80
2021/10/26 01:18:14;;;;;;;21.75;17.33;;;12.70;99.90;;;;;;5103072;27;20593;-79
2021/10/26 01:20:43;;;;;;;28.10;21.15;;;12.70;99.90;;;;;;5078488;27;20039;-81
2021/10/26 01:23:10;;;;;;;23.98;19.50;;;12.70;99.90;;;;;;5079923;27;20034;-80
2021/10/26 01:25:36;;;;;;;21.88;17.05;;;12.70;99.90;;;;;;5095086;27;20035;-85
2021/10/26 01:28:03;;;;;;;24.63;18.80;;;12.70;99.90;;;;;;5048124;27;20039;-81
2021/10/26 01:30:33;;;;;;;24.70;17.30;;;12.70;99.90;;;;;;5112501;27;20023;-81
2021/10/26 01:33:23;;;;;;;23.58;18.95;;;12.70;99.90;;;;;;5069264;27;20050;-80
2021/10/26 01:36:03;;;;;;;28.10;20.52;;;12.60;99.90;;;;;;5084085;27;20038;-81
2021/10/26 01:38:30;;;;;;;29.40;20.45;;;12.70;99.90;;;;;;5081882;27;20039;-81
2021/10/26 01:40:57;;;;;;;26.45;22.02;;;12.70;99.90;;;;;;5094709;27;20035;-80
2021/10/26 01:43:23;;;;;;;22.75;18.38;;;12.60;99.90;;;;;;5095054;27;20483;-81
2021/10/26 01:45:51;;;;;;;25.92;20.30;;;12.60;99.90;;;;;;5114397;27;20028;-81
2021/10/26 01:48:29;;;;;;;26.55;20.80;;;12.60;99.90;;;;;;5081570;27;20040;-81
2021/10/26 01:50:58;;;;;;;30.52;21.63;;;12.60;99.90;;;;;;5080448;27;20025;-83
2021/10/26 01:53:28;;;;;;;35.58;25.48;;;12.60;99.90;;;;;;5097065;27;20042;-83
2021/10/26 01:55:54;;;;;;;31.33;23.35;;;12.60;99.90;;;;;;5099703;27;20036;-84
2021/10/26 01:58:23;;;;;;;29.17;21.65;;;12.60;99.90;;;;;;5115856;27;20035;-83
2021/10/26 02:01:08;;;;;;;31.27;23.88;;;12.60;99.90;;;;;;5083666;27;20031;-83
2021/10/26 02:03:35;;;;;;;35.05;27.20;;;12.60;99.90;;;;;;5114874;27;20392;-83
2021/10/26 02:06:04;;;;;;;33.05;24.77;;;12.60;99.90;;;;;;5048169;27;20047;-83
2021/10/26 02:08:30;;;;;;;29.50;22.75;;;12.60;99.90;;;;;;5079656;27;20039;-83
2021/10/26 02:10:58;;;;;;;32.53;24.30;;;12.60;99.90;;;;;;5096108;27;20040;-83
2021/10/26 02:13:24;;;;;;;32.20;24.05;;;12.50;99.90;;;;;;5060359;27;20810;-83
2021/10/26 02:15:54;;;;;;;33.70;23.85;;;12.60;99.90;;;;;;5095806;27;20043;-83
2021/10/26 02:18:21;;;;;;;28.58;21.77;;;12.60;99.90;;;;;;5078943;27;20403;-83
2021/10/26 02:20:49;;;;;;;32.63;26.08;;;12.60;99.90;;;;;;5079247;27;20039;-83
2021/10/26 02:23:17;;;;;;;30.80;25.58;;;12.50;99.90;;;;;;5079762;27;20039;-83
2021/10/26 02:25:43;;;;;;;30.73;23.38;;;12.50;99.90;;;;;;5082978;27;20480;-83
2021/10/26 02:28:10;;;;;;;38.30;26.17;;;12.50;99.90;;;;;;5051440;27;20495;-83
2021/10/26 02:30:36;;;;;;;28.35;22.65;;;12.50;99.90;;;;;;5082586;27;20039;-83
2021/10/26 02:33:03;;;;;;;35.42;23.95;;;12.50;99.90;;;;;;5097302;27;20046;-83
2021/10/26 02:35:30;;;;;;;32.55;24.75;;;12.50;99.90;;;;;;5063990;27;20035;-83
2021/10/26 02:37:57;;;;;;;35.72;24.63;;;12.50;99.90;;;;;;5083613;27;20476;-84
2021/10/26 02:40:23;;;;;;;30.90;23.75;;;12.50;99.90;;;;;;5081627;27;20031;-83
2021/10/26 02:42:50;;;;;;;30.80;23.05;;;12.50;99.90;;;;;;5078587;27;20045;-84
2021/10/26 02:45:19;;;;;;;32.65;22.15;;;12.50;99.90;;;;;;5087803;27;20051;-83
2021/10/26 02:47:46;;;;;;;33.85;26.00;;;12.50;99.90;;;;;;5078055;27;20047;-84
2021/10/26 02:50:12;;;;;;;34.58;23.38;;;12.50;99.90;;;;;;5078105;27;20035;-84
2021/10/26 02:52:39;;;;;;;32.05;23.73;;;12.50;99.90;;;;;;5063977;27;20058;-84
2021/10/26 02:55:07;;;;;;;28.88;22.42;;;12.50;99.90;;;;;;5080333;27;20598;-84
2021/10/26 02:57:34;;;;;;;30.17;21.52;;;12.50;99.90;;;;;;5096385;27;20038;-85
2021/10/26 03:00:00;;;;;;;29.33;22.15;;;12.50;99.90;;;;;;5099290;27;20023;-85
2021/10/26 03:02:27;;;;;;;32.47;22.40;;;12.60;99.90;;;;;;5076731;27;20042;-84
2021/10/26 03:04:57;;;;;;;30.13;21.50;;;12.60;99.90;;;;;;5080197;27;20046;-84
2021/10/26 03:07:23;;;;;;;31.10;22.42;;;12.60;99.90;;;;;;5096987;27;20035;-84
2021/10/26 03:09:50;;;;;;;33.17;23.73;;;12.60;99.90;;;;;;5077040;28;20096;-84
2021/10/26 03:12:16;;;;;;;29.42;21.35;;;12.60;99.90;;;;;;5064816;27;20043;-85
2021/10/26 03:14:43;;;;;;;29.38;22.92;;;12.60;99.90;;;;;;5079256;28;20031;-84
2021/10/26 03:17:10;;;;;;;28.17;22.45;;;12.60;99.90;;;;;;5061048;28;20060;-85
2021/10/26 03:19:46;;;;;;;29.30;21.52;;;12.60;99.90;;;;;;5063734;28;20602;-84
2021/10/26 03:22:12;;;;;;;28.38;21.83;;;12.60;99.90;;;;;;5046904;28;20044;-84
2021/10/26 03:24:39;;;;;;;33.45;25.20;;;12.60;99.90;;;;;;5047253;28;20032;-83
2021/10/26 03:27:06;;;;;;;40.00;28.08;;;12.60;99.90;;;;;;5064900;28;20055;-84
2021/10/26 03:29:33;;;;;;;35.35;26.83;;;12.50;99.90;;;;;;5065386;28;20063;-84
2021/10/26 03:31:59;;;;;;;34.05;23.88;;;12.50;99.90;;;;;;5050822;28;20485;-85
2021/10/26 03:35:01;;;;;;;41.53;30.23;;;12.50;99.90;;;;;;5061950;28;20381;-83
2021/10/26 03:37:28;;;;;;;30.35;24.48;;;12.50;99.90;;;;;;5046128;28;20039;-84
2021/10/26 03:39:57;;;;;;;32.20;23.75;;;12.50;99.90;;;;;;5060138;28;20036;-84
2021/10/26 03:42:26;;;;;;;34.05;24.77;;;12.50;99.90;;;;;;5045279;28;20843;-84
2021/10/26 03:44:53;;;;;;;36.65;27.38;;;12.50;99.90;;;;;;5046097;28;20373;-84
2021/10/26 03:47:20;;;;;;;32.72;24.10;;;12.50;99.90;;;;;;5064706;28;20131;-84
2021/10/26 03:49:47;;;;;;;30.00;22.35;;;12.50;99.90;;;;;;5039745;28;20036;-83
2021/10/26 03:52:14;;;;;;;33.58;24.80;;;12.50;99.90;;;;;;5062034;28;20039;-81
2021/10/26 03:54:41;;;;;;;35.05;25.27;;;12.50;99.90;;;;;;5067092;28;20046;-82
2021/10/26 03:57:10;;;;;;;38.22;27.98;;;12.50;99.90;;;;;;5078172;28;20024;-84
2021/10/26 03:59:39;;;;;;;33.65;25.55;;;12.50;99.90;;;;;;5096365;28;20496;-84
2021/10/26 04:02:17;;;;;;;35.13;25.55;;;12.40;99.90;;;;;;5094289;28;20027;-84
2021/10/26 04:04:44;;;;;;;39.13;28.67;;;12.40;99.90;;;;;;5062191;27;20038;-81
2021/10/26 04:07:11;;;;;;;34.28;26.00;;;12.40;99.90;;;;;;5093881;28;20035;-81
2021/10/26 04:14:45;;;;;;;37.95;27.25;;;12.40;99.90;;;;;;5099031;28;20112;-81
2021/10/26 04:17:14;;;;;;;33.67;27.17;;;12.30;99.90;;;;;;5052990;28;20051;-81
2021/10/26 04:19:41;;;;;;;37.17;26.48;;;12.40;99.90;;;;;;5076826;28;20543;-81
2021/10/26 04:22:08;;;;;;;35.55;26.92;;;12.30;99.90;;;;;;5094307;27;20050;-82
2021/10/26 04:24:37;;;;;;;37.50;29.65;;;12.30;99.90;;;;;;5096067;27;20594;-81
2021/10/26 04:27:03;;;;;;;36.63;27.27;;;12.30;99.90;;;;;;5076951;27;20042;-81
2021/10/26 04:29:30;;;;;;;34.60;26.05;;;12.30;99.90;;;;;;5080504;27;20031;-82
2021/10/26 04:31:57;;;;;;;37.63;29.65;;;12.30;99.90;;;;;;5095022;27;20027;-81
2021/10/26 04:34:27;;;;;;;39.45;29.73;;;12.30;99.90;;;;;;5072591;28;20032;-82
2021/10/26 04:36:55;;;;;;;37.22;27.55;;;12.30;99.90;;;;;;5093740;27;20027;-81
2021/10/26 04:39:23;;;;;;;38.50;28.30;;;12.20;99.90;;;;;;5062684;27;20038;-82
2021/10/26 04:41:50;;;;;;;39.15;27.65;;;12.20;99.90;;;;;;5059254;27;20042;-82
2021/10/26 04:44:17;;;;;;;41.00;27.98;;;12.20;99.90;;;;;;5076581;27;20027;-81
2021/10/26 04:46:44;;;;;;;40.80;28.15;;;12.30;99.90;;;;;;5095993;27;20062;-82
2021/10/26 04:49:11;;;;;;;36.38;26.45;;;12.20;99.90;;;;;;5064810;27;20038;-81
2021/10/26 04:51:38;;;;;;;36.33;26.00;;;12.20;99.90;;;;;;5099542;27;20046;-83
2021/10/26 04:54:04;;;;;;;39.80;27.95;;;12.20;99.90;;;;;;5065134;27;20043;-83
2021/10/26 04:56:31;;;;;;;36.75;26.25;;;12.20;99.90;;;;;;5101388;27;20039;-84
2021/10/26 04:59:20;;;;;;;38.33;26.08;;;12.20;99.90;;;;;;5113121;27;20042;-83
2021/10/26 05:01:46;;;;;;;34.30;26.00;;;12.20;99.90;;;;;;5079337;27;20036;-83
2021/10/26 05:04:13;;;;;;;40.10;26.08;;;12.20;99.90;;;;;;5068361;27;20459;-83
2021/10/26 05:06:44;;;;;;;39.40;24.85;;;12.20;99.90;;;;;;5081466;27;20039;-81
2021/10/26 05:09:10;;;;;;;33.80;24.88;;;12.20;99.90;;;;;;5093021;27;20051;-80
2021/10/26 05:11:37;;;;;;;42.53;26.60;;;12.20;99.90;;;;;;5095982;27;20043;-76
2021/10/26 05:14:07;;;;;;;39.38;24.95;;;12.20;99.90;;;;;;5099204;27;20089;-84
2021/10/26 05:16:53;;;;;;;44.05;27.58;;;12.10;99.90;;;;;;5101197;27;20035;-81
2021/10/26 05:19:41;;;;;;;40.38;27.48;;;12.10;99.90;;;;;;5117270;27;20494;-82
2021/10/26 05:22:37;;;;;;;43.22;27.80;;;12.00;99.90;;;;;;5075020;27;20530;-80
2021/10/26 05:25:22;;;;;;;43.80;30.67;;;12.00;99.90;;;;;;5101425;27;20058;-81
2021/10/26 05:28:02;;;;;;;44.08;26.17;;;12.00;99.90;;;;;;5086320;27;20039;-81
2021/10/26 05:30:29;;;;;;;40.97;27.92;;;12.00;99.90;;;;;;5099439;27;21209;-77
2021/10/26 05:32:56;;;;;;;41.13;27.85;;;11.90;99.90;;;;;;5114403;27;20047;-81
2021/10/26 05:35:22;;;;;;;41.05;25.70;;;11.90;99.90;;;;;;5101231;27;20031;-77
2021/10/26 05:37:49;;;;;;;40.42;28.15;;;11.90;99.90;;;;;;5092464;27;20038;-81
2021/10/26 05:40:15;;;;;;;48.25;30.48;;;12.00;99.90;;;;;;5110413;27;20030;-81
2021/10/26 05:42:42;;;;;;;38.50;27.63;;;12.00;99.90;;;;;;5062965;27;20031;-82
2021/10/26 05:45:08;;;;;;;41.22;26.98;;;12.00;99.90;;;;;;5077760;27;20043;-83
2021/10/26 05:47:35;;;;;;;38.55;28.25;;;12.00;99.90;;;;;;5093124;27;20048;-84
2021/10/26 05:50:02;;;;;;;41.40;28.92;;;12.00;99.90;;;;;;5089090;27;20031;-84
2021/10/26 05:52:29;;;;;;;39.40;29.13;;;12.00;99.90;;;;;;5075916;27;20034;-83
2021/10/26 05:54:55;;;;;;;44.67;31.70;;;12.00;99.90;;;;;;5077922;27;20741;-83
2021/10/26 05:57:22;;;;;;;39.38;27.55;;;12.00;99.90;;;;;;5083240;27;20027;-84
2021/10/26 05:59:48;;;;;;;46.75;31.23;;;12.00;99.90;;;;;;5072511;27;20023;-84
2021/10/26 06:02:15;;;;;;;43.85;30.17;;;11.90;99.90;;;;;;5063848;27;20026;-83
2021/10/26 06:04:42;;;;;;;41.28;28.02;;;11.90;99.90;;;;;;5077056;27;20031;-82
2021/10/26 06:07:08;;;;;;;46.95;30.45;;;11.80;99.90;;;;;;5097629;27;20042;-82
2021/10/26 06:09:36;;;;;;;43.67;28.77;;;11.80;99.90;;;;;;5096422;27;20043;-82
2021/10/26 06:12:05;;;;;;;52.13;32.03;;;11.70;99.90;;;;;;5061022;27;20036;-82
2021/10/26 06:14:35;;;;;;;50.70;32.33;;;11.70;99.90;;;;;;5115057;27;20153;-83
2021/10/26 06:17:02;;;;;;;39.42;28.20;;;11.70;99.90;;;;;;5080081;27;20038;-75
2021/10/26 06:19:32;;;;;;;40.47;27.00;;;11.70;99.90;;;;;;5079673;27;20054;-76
2021/10/26 06:22:00;;;;;;;41.20;26.10;;;11.70;99.90;;;;;;5078252;27;20035;-77
2021/10/26 06:24:26;;;;;;;46.28;29.58;;;11.80;99.90;;;;;;5089502;28;20098;-75
2021/10/26 06:26:53;;;;;;;42.70;26.70;;;11.80;99.90;;;;;;5087989;27;20062;-82
2021/10/26 06:29:20;;;;;;;46.70;30.10;;;11.80;99.90;;;;;;5096613;27;20046;-80
2021/10/26 06:32:21;;;;;;;44.00;29.83;;;11.80;99.90;;;;;;5089222;27;20153;-84
2021/10/26 06:34:51;;;;;;;43.22;29.17;;;11.80;99.90;;;;;;5101142;27;20035;-84
2021/10/26 06:37:18;;;;;;;51.42;32.95;;;11.90;99.90;;;;;;5045966;27;20043;-83
2021/10/26 06:39:47;;;;;;;54.58;33.75;;;11.80;99.90;;;;;;5056681;27;20147;-83
2021/10/26 06:42:13;;;;;;;53.80;33.08;;;11.80;99.90;;;;;;5074203;27;20031;-82
2021/10/26 06:44:58;;;;;;;57.22;32.85;;;11.80;99.90;;;;;;5078798;27;20043;-83
2021/10/26 06:47:43;;;;;;;48.05;30.77;;;11.80;99.90;;;;;;5096961;27;20036;-83
2021/10/26 06:50:30;;;;;;;48.35;30.33;;;11.90;99.90;;;;;;5125520;27;20029;-82
2021/10/26 06:53:16;;;;;;;56.67;32.05;;;11.90;99.90;;;;;;5090558;27;20430;-82
2021/10/26 06:56:15;;;;;;;56.58;33.30;;;11.90;99.90;;;;;;5057784;27;20040;-83
2021/10/26 06:59:10;;;;;;;62.38;35.20;;;11.90;99.90;;;;;;5083642;27;20036;-83
2021/10/26 07:02:12;;;;;;;56.92;32.85;;;11.90;99.90;;;;;;5011107;28;20033;-81
2021/10/26 07:05:06;;;;;;;55.58;32.75;;;11.90;99.90;;;;;;5086358;27;20052;-84
2021/10/26 07:07:43;;;;;;;52.92;31.50;;;11.90;99.90;;;;;;5093005;27;20060;-83
2021/10/26 07:10:17;;;;;;;48.42;29.83;;;11.90;99.90;;;;;;5079267;27;20046;-83
2021/10/26 07:13:03;;;;;;;47.47;30.10;;;11.90;99.90;;;;;;5097396;27;20054;-83
2021/10/26 07:15:32;;;;;;;42.38;29.05;;;12.00;99.90;;;;;;5077931;27;20678;-83
2021/10/26 07:17:59;;;;;;;54.45;30.85;;;12.00;99.90;;;;;;5078459;27;20674;-83
2021/10/26 07:20:27;;;;;;;46.83;30.05;;;12.00;99.90;;;;;;5065347;28;20031;-82
2021/10/26 07:23:13;;;;;;;44.60;26.27;;;12.00;99.90;;;;;;5097965;27;20040;-83
2021/10/26 07:25:58;;;;;;;42.80;28.40;;;12.10;99.90;;;;;;5071810;27;20042;-82
2021/10/26 07:28:24;;;;;;;51.50;31.88;;;12.10;99.90;;;;;;5062652;27;20481;-82
2021/10/26 07:30:51;;;;;;;43.55;26.98;;;12.10;99.90;;;;;;5079637;27;20350;-79
2021/10/26 07:33:22;;;;;;;49.42;29.15;;;12.10;99.90;;;;;;5106072;27;20035;-78
2021/10/26 07:35:52;;;;;;;49.78;29.00;;;12.20;99.90;;;;;;5087273;27;20401;-76
2021/10/26 07:38:31;;;;;;;40.80;26.17;;;12.20;99.90;;;;;;5070787;28;20028;-76
2021/10/26 07:40:59;;;;;;;43.55;26.75;;;12.20;99.90;;;;;;5108549;27;20039;-78
2021/10/26 07:43:44;;;;;;;44.92;29.05;;;12.20;99.90;;;;;;5092775;27;20509;-80
2021/10/26 07:46:42;;;;;;;46.97;28.83;;;12.30;99.90;;;;;;5111330;27;20043;-82
2021/10/26 07:49:13;;;;;;;47.92;30.60;;;12.30;99.90;;;;;;5078738;27;20061;-81
2021/10/26 07:51:42;;;;;;;47.65;28.10;;;12.30;99.90;;;;;;5095038;28;20487;-81
2021/10/26 07:54:09;;;;;;;48.85;30.30;;;12.30;99.90;;;;;;5060062;27;20038;-82
2021/10/26 07:56:36;;;;;;;54.17;33.22;;;12.30;99.90;;;;;;5080442;28;20045;-78
2021/10/26 07:59:05;;;;;;;54.53;33.53;;;12.30;99.90;;;;;;5116612;27;20032;-80
2021/10/26 08:01:31;;;;;;;48.72;30.67;;;12.40;99.90;;;;;;5094566;27;20038;-81
2021/10/26 08:04:20;;;;;;;46.45;28.98;;;12.40;99.90;;;;;;5106668;27;20050;-77
2021/10/26 08:07:03;;;;;;;49.13;28.75;;;12.40;99.90;;;;;;5081038;27;20039;-83
2021/10/26 08:09:29;;;;;;;51.17;31.15;;;12.50;99.90;;;;;;5073715;27;20059;-84
2021/10/26 08:11:58;;;;;;;48.47;27.80;;;12.50;99.90;;;;;;5076044;27;20562;-80
2021/10/26 08:14:24;;;;;;;50.53;30.75;;;12.50;99.90;;;;;;5092439;27;20036;-80
2021/10/26 08:16:51;;;;;;;48.72;28.67;;;12.60;99.90;;;;;;5077396;27;20046;-83
2021/10/26 08:19:18;;;;;;;44.15;26.63;;;12.60;99.90;;;;;;5080429;27;20049;-85
2021/10/26 08:21:46;;;;;;;42.03;26.52;;;12.70;99.90;;;;;;5120187;27;20038;-83
2021/10/26 08:24:13;;;;;;;48.83;27.08;;;12.70;99.90;;;;;;5050969;27;20042;-82
2021/10/26 08:26:45;;;;;;;45.65;25.85;;;12.70;99.90;;;;;;5067139;27;20047;-83
2021/10/26 08:31:49;;;;;;;44.80;26.88;;;12.90;99.90;;;;;;5099609;27;20053;-83
2021/10/26 08:36:45;;;;;;;42.47;25.23;;;13.00;99.90;;;;;;5079502;27;20044;-83
2021/10/26 08:39:12;;;;;;;41.83;27.15;;;13.00;99.90;;;;;;5078783;27;20492;-83
2021/10/26 08:41:46;;;;;;;38.85;25.15;;;13.00;99.90;;;;;;5053382;27;20043;-82
2021/10/26 08:44:17;;;;;;;45.63;28.20;;;13.10;99.90;;;;;;5097024;27;20047;-84
2021/10/26 08:46:45;;;;;;;44.88;26.27;;;13.10;99.90;;;;;;5099581;27;20036;-83
2021/10/26 08:49:14;;;;;;;41.50;25.40;;;13.20;99.90;;;;;;5082262;27;20039;-82
2021/10/26 08:52:09;;;;;;;38.38;23.00;;;13.30;99.90;;;;;;5101675;27;20035;-83
2021/10/26 08:54:37;;;;;;;39.13;24.73;;;13.30;99.90;;;;;;5069725;27;20035;-82
2021/10/26 08:57:07;;;;;;;36.05;24.38;;;13.40;99.90;;;;;;5097342;27;20042;-77
2021/10/26 08:59:52;;;;;;;38.67;24.83;;;13.50;99.90;;;;;;5087060;27;20042;-79
2021/10/26 09:02:30;;;;;;;36.75;22.92;;;13.50;99.90;;;;;;5080328;28;20380;-76
2021/10/26 09:05:23;;;;;;;35.75;21.58;;;13.60;99.90;;;;;;5081785;27;20047;-76
2021/10/26 09:08:05;;;;;;;35.05;21.95;;;13.60;99.90;;;;;;5096566;27;20035;-82
2021/10/26 09:10:34;;;;;;;36.10;23.67;;;13.70;99.90;;;;;;5113308;27;20051;-79
2021/10/26 09:16:41;;;;;;;39.15;21.05;;;13.70;99.90;;;;;;5106437;27;20058;-76
2021/10/26 09:19:42;;;;;;;30.30;20.52;;;13.70;99.90;;;;;;5054177;27;20043;-80
2021/10/26 09:22:25;;;;;;;37.55;23.05;;;13.70;99.90;;;;;;5098820;27;20044;-81
2021/10/26 09:24:55;;;;;;;39.40;24.42;;;13.70;99.90;;;;;;5075082;27;20533;-76
2021/10/26 09:27:22;;;;;;;32.88;22.15;;;13.70;99.90;;;;;;5109437;27;20466;-82
2021/10/26 09:29:51;;;;;;;35.47;21.70;;;13.80;99.90;;;;;;5096718;27;20491;-80
2021/10/26 09:32:30;;;;;;;36.05;23.10;;;13.90;99.90;;;;;;5091586;27;20058;-80
2021/10/26 09:34:59;;;;;;;35.97;22.63;;;14.00;99.90;;;;;;5075984;27;20638;-80
2021/10/26 09:37:36;;;;;;;34.78;23.20;;;14.10;99.90;;;;;;5108311;27;20487;-80
2021/10/26 09:40:04;;;;;;;38.08;24.25;;;14.20;99.90;;;;;;5092963;27;20031;-83
2021/10/26 09:42:44;;;;;;;38.67;24.88;;;14.40;99.90;;;;;;5080831;27;20035;-81
2021/10/26 09:45:26;;;;;;;36.60;23.92;;;14.50;99.90;;;;;;5114726;27;20031;-76
2021/10/26 09:48:13;;;;;;;39.67;23.77;;;14.60;99.90;;;;;;5091121;27;20511;-76
2021/10/26 09:50:41;;;;;;;38.03;23.90;;;14.60;99.90;;;;;;5116119;27;20038;-76
2021/10/26 09:53:14;;;;;;;31.48;22.65;;;14.60;99.90;;;;;;5114810;27;20043;-80
2021/10/26 09:55:50;;;;;;;32.58;21.90;;;14.50;99.90;;;;;;5112113;27;20472;-80
2021/10/26 09:58:23;;;;;;;27.50;19.45;;;14.50;99.90;;;;;;5079957;27;20400;-83
2021/10/26 10:00:52;;;;;;;;;;;14.40;99.90;;;;;;5078683;27;20027;-77
2021/10/26 10:03:24;;;;;;;35.13;20.05;;;14.40;99.90;;;;;;5097306;27;19912;-85
2021/10/26 10:05:57;;;;;;;27.57;18.40;;;14.30;99.90;;;;;;5095970;27;20396;-79
2021/10/26 10:08:34;;;;;;;26.40;18.58;;;14.40;99.90;;;;;;5073172;27;20295;-81
2021/10/26 10:11:06;;;;;;;26.05;17.92;;;14.40;99.90;;;;;;5093015;27;20062;-80
2021/10/26 10:13:44;;;;;;;;;;;14.40;99.90;;;;;;5093241;27;20043;-83
2021/10/26 10:16:13;;;;;;;21.70;14.85;;;14.40;99.90;;;;;;5074241;27;19911;-78
2021/10/26 10:18:42;;;;;;;20.35;12.60;;;14.40;99.90;;;;;;5108677;27;20027;-77
2021/10/26 10:21:13;;;;;;;19.20;12.52;;;14.40;99.90;;;;;;5118605;27;20030;-81
2021/10/26 10:23:44;;;;;;;18.40;12.48;;;14.50;99.90;;;;;;5098825;27;20558;-80
2021/10/26 10:26:13;;;;;;;24.10;16.20;;;14.60;99.90;;;;;;5057224;27;20035;-77
2021/10/26 10:28:44;;;;;;;17.58;12.10;;;14.70;99.90;;;;;;5119542;27;20062;-79
2021/10/26 10:31:14;;;;;;;24.65;14.18;;;14.70;99.90;;;;;;5071480;27;20043;-81
2021/10/26 10:33:45;;;;;;;15.50;9.95;;;14.80;99.90;;;;;;5093509;27;20042;-80
2021/10/26 10:36:12;;;;;;;19.35;11.40;;;14.80;99.90;;;;;;5097819;27;20483;-79
2021/10/26 10:38:40;;;;;;;16.40;10.60;;;14.90;99.90;;;;;;5094254;27;20408;-80
2021/10/26 10:41:21;;;;;;;19.17;11.48;;;14.90;99.90;;;;;;5076177;27;20042;-81
2021/10/26 10:43:48;;;;;;;21.33;13.40;;;14.90;99.90;;;;;;5077034;27;20486;-80
2021/10/26 10:46:36;;;;;;;19.33;12.57;;;14.80;99.90;;;;;;5056680;27;20404;-80
2021/10/26 10:49:26;;;;;;;18.80;12.02;;;14.80;99.90;;;;;;5108823;27;20061;-79
2021/10/26 10:52:12;;;;;;;14.82;9.63;;;14.80;99.90;;;;;;5111894;27;20031;-81
2021/10/26 10:54:49;;;;;;;12.52;9.15;;;14.80;99.90;;;;;;5106375;27;20468;-77
2021/10/26 10:57:41;;;;;;;19.30;10.98;;;14.90;99.90;;;;;;5060946;27;20051;-78
2021/10/26 11:00:12;;;;;;;17.08;11.25;;;14.90;99.90;;;;;;5064757;27;20039;-78
2021/10/26 11:02:46;;;;;;;19.27;10.30;;;14.90;99.90;;;;;;5118369;27;20035;-81
2021/10/26 11:05:49;;;;;;;16.65;10.70;;;14.90;99.90;;;;;;5108442;27;20483;-79
2021/10/26 11:08:35;;;;;;;16.30;10.00;;;14.90;99.90;;;;;;5022833;28;20045;-78
2021/10/26 11:11:02;;;;;;;17.50;10.85;;;14.80;99.90;;;;;;5100876;27;20058;-77
2021/10/26 11:13:37;;;;;;;17.08;10.23;;;14.80;99.90;;;;;;5071948;27;20376;-77
2021/10/26 11:16:07;;;;;;;20.15;10.68;;;14.80;99.90;;;;;;5074145;28;20400;-78
2021/10/26 11:18:52;;;;;;;18.20;9.52;;;14.90;99.90;;;;;;5092723;27;20438;-78
2021/10/26 11:21:23;;;;;;;15.98;9.82;;;14.90;99.90;;;;;;5088846;27;20046;-80
2021/10/26 11:24:06;;;;;;;17.48;10.70;;;14.90;99.90;;;;;;5074657;27;20046;-78
2021/10/26 11:26:38;;;;;;;24.77;15.02;;;14.90;99.90;;;;;;5105579;27;20039;-77
2021/10/26 11:29:10;;;;;;;27.85;13.73;;;14.70;99.90;;;;;;5090341;27;20475;-77
2021/10/26 11:31:48;;;;;;;20.48;12.88;;;14.60;99.90;;;;;;5094476;27;20034;-78
2021/10/26 11:34:21;;;;;;;19.92;12.77;;;14.50;99.90;;;;;;5075566;27;20035;-78
2021/10/26 11:37:06;;;;;;;18.25;12.27;;;14.40;99.90;;;;;;5077655;27;20514;-85
2021/10/26 11:39:36;;;;;;;22.95;13.13;;;14.50;99.90;;;;;;5075155;28;20032;-85
2021/10/26 11:42:08;;;;;;;21.48;13.20;;;14.50;99.90;;;;;;5092752;28;20032;-85
2021/10/26 11:44:35;;;;;;;18.80;12.35;;;14.60;99.90;;;;;;5075763;27;20039;-86
2021/10/26 11:47:02;;;;;;;17.67;12.70;;;14.70;99.90;;;;;;5073125;27;20047;-86
2021/10/26 11:49:31;;;;;;;25.65;15.52;;;14.80;99.90;;;;;;5078253;27;20062;-85
2021/10/26 11:52:06;;;;;;;24.92;14.48;;;14.80;99.90;;;;;;5087140;27;20046;-85
2021/10/26 11:54:43;;;;;;;25.00;14.60;;;14.90;99.90;;;;;;5064738;27;20031;-77
2021/10/26 11:57:21;;;;;;;22.02;13.40;;;15.10;99.90;;;;;;5091127;27;20035;-78
2021/10/26 12:00:08;;;;;;;19.42;12.07;;;15.20;99.90;;;;;;5077383;27;20028;-78
2021/10/26 12:02:40;;;;;;;25.85;15.43;;;15.30;99.90;;;;;;5078559;27;20559;-78
2021/10/26 12:05:08;;;;;;;23.58;13.38;;;15.40;99.90;;;;;;5112566;27;20491;-78
2021/10/26 12:07:35;;;;;;;20.45;12.15;;;15.40;99.90;;;;;;5078572;27;20043;-78
2021/10/26 12:10:06;;;;;;;21.05;10.95;;;15.30;99.90;;;;;;5093850;27;20046;-82
2021/10/26 12:12:34;;;;;;;18.23;11.52;;;15.30;99.90;;;;;;5077256;27;20042;-84
2021/10/26 12:15:08;;;;;;;17.30;11.57;;;15.30;99.90;;;;;;5078367;27;20043;-85
2021/10/26 12:17:42;;;;;;;14.80;10.15;;;15.40;99.90;;;;;;5079396;27;20039;-85
2021/10/26 12:20:24;;;;;;;18.35;10.65;;;15.50;99.90;;;;;;5108156;27;20023;-86
2021/10/26 12:23:04;;;;;;;18.30;10.57;;;15.60;99.90;;;;;;5095099;27;20036;-87
2021/10/26 12:25:43;;;;;;;18.60;10.80;;;15.70;99.90;;;;;;5093649;27;20046;-86
2021/10/26 12:28:11;;;;;;;;;;;15.60;99.90;;;;;;5079132;27;20043;-86
2021/10/26 12:30:39;;;;;;;13.75;8.05;;;15.50;99.90;;;;;;5076845;27;19922;-82
2021/10/26 12:33:24;;;;;;;15.05;8.85;;;15.50;99.90;;;;;;5095637;27;20046;-84
2021/10/26 12:36:04;;;;;;;16.92;9.18;;;15.50;99.90;;;;;;5123775;27;20031;-85
2021/10/26 12:38:43;;;;;;;17.52;7.80;;;15.50;99.90;;;;;;5078239;27;20040;-86
2021/10/26 12:41:20;;;;;;;14.68;7.20;;;15.60;99.90;;;;;;5077810;27;20053;-85
2021/10/26 12:44:04;;;;;;;14.38;7.68;;;15.70;99.90;;;;;;5079470;27;20046;-85
2021/10/26 12:46:30;;;;;;;13.02;6.93;;;15.70;99.90;;;;;;5111885;27;20027;-85
2021/10/26 12:49:15;;;;;;;15.10;6.22;;;15.70;99.90;;;;;;5079886;27;20053;-87
2021/10/26 12:51:44;;;;;;;12.02;6.55;;;15.70;99.90;;;;;;5093201;27;20039;-86
2021/10/26 12:54:18;;;;;;;11.85;5.70;;;15.80;99.90;;;;;;5091412;27;20035;-85
2021/10/26 12:56:56;;;;;;;11.48;6.88;;;15.70;99.90;;;;;;5109341;27;20034;-86
2021/10/26 12:59:28;;;;;;;13.90;8.02;;;15.70;99.90;;;;;;5093059;27;20581;-86
2021/10/26 13:02:03;;;;;;;12.75;7.07;;;15.50;99.90;;;;;;5075229;27;20031;-86
2021/10/26 13:04:30;;;;;;;15.10;6.18;;;15.50;99.90;;;;;;5106687;27;20129;-86
2021/10/26 13:06:57;;;;;;;14.38;6.35;;;15.60;99.90;;;;;;5076402;27;20040;-85